createdAt,value
2022-08-21T00:01:44.768Z,5.63
2022-08-21T00:04:14.585Z,5.57
2022-08-21T00:06:48.510Z,5.85
2022-08-21T00:09:15.686Z,5.68
2022-08-21T00:11:42.891Z,5.57
2022-08-21T00:14:10.937Z,7.55
2022-08-21T00:16:39.515Z,6.20
2022-08-21T00:19:07.483Z,5.30
2022-08-21T00:21:35.397Z,5.55
2022-08-21T00:24:03.117Z,5.30
2022-08-21T00:26:30.335Z,6.07
2022-08-21T00:28:58.405Z,6.32
2022-08-21T00:31:26.585Z,5.97
2022-08-21T00:34:00.849Z,6.72
2022-08-21T00:36:29.050Z,7.88
2022-08-21T00:38:56.271Z,6.30
2022-08-21T00:41:37.748Z,5.90
2022-08-21T00:44:06.971Z,6.20
2022-08-21T00:46:34.179Z,6.35
2022-08-21T00:49:01.429Z,6.18
2022-08-21T00:51:32.143Z,5.93
2022-08-21T00:54:05.672Z,5.95
2022-08-21T00:56:33.061Z,6.03
2022-08-21T00:59:01.247Z,6.32
2022-08-21T01:01:28.904Z,5.75
2022-08-21T01:03:56.104Z,8.73
2022-08-21T01:06:23.295Z,6.97
2022-08-21T01:08:53.174Z,6.65
2022-08-21T01:11:23.637Z,6.10
2022-08-21T01:13:52.776Z,6.70
2022-08-21T01:16:22.024Z,6.78
2022-08-21T01:18:50.271Z,8.40
2022-08-21T01:21:22.574Z,6.88
2022-08-21T01:23:56.463Z,6.18
2022-08-21T01:26:33.615Z,7.13
2022-08-21T01:29:04.332Z,7.60
2022-08-21T01:31:34.123Z,7.20
2022-08-21T01:34:02.080Z,6.93
2022-08-21T01:36:29.255Z,5.50
2022-08-21T01:38:56.681Z,6.65
2022-08-21T01:41:23.900Z,6.93
2022-08-21T01:43:51.528Z,6.63
2022-08-21T01:46:18.465Z,6.68
2022-08-21T01:48:45.383Z,6.05
2022-08-21T01:51:12.796Z,5.80
2022-08-21T01:53:39.874Z,6.82
2022-08-21T01:56:11.903Z,7.07
2022-08-21T01:58:43.769Z,7.03
2022-08-21T02:01:10.712Z,6.97
2022-08-21T02:03:38.549Z,7.10
2022-08-21T02:06:07.754Z,7.20
2022-08-21T02:08:35.252Z,6.32
2022-08-21T02:11:02.570Z,7.70
2022-08-21T02:13:30.041Z,7.43
2022-08-21T02:15:57.228Z,6.88
2022-08-21T02:18:24.426Z,6.18
2022-08-21T02:20:56.127Z,6.85
2022-08-21T02:23:26.673Z,6.88
2022-08-21T02:25:55.192Z,8.50
2022-08-21T02:28:25.438Z,7.32
2022-08-21T02:30:55.038Z,7.82
2022-08-21T02:33:25.599Z,6.60
2022-08-21T02:35:53.981Z,7.40
2022-08-21T02:38:23.441Z,6.65
2022-08-21T02:40:51.614Z,7.50
2022-08-21T02:43:21.021Z,6.82
2022-08-21T02:45:48.772Z,7.20
2022-08-21T02:48:17.593Z,6.38
2022-08-21T02:50:48.608Z,7.15
2022-08-21T02:53:17.518Z,6.70
2022-08-21T02:55:48.575Z,6.75
2022-08-21T02:58:17.174Z,8.00
2022-08-21T03:00:44.775Z,6.45
2022-08-21T03:03:15.538Z,6.30
2022-08-21T03:05:43.401Z,7.65
2022-08-21T03:08:11.813Z,7.18
2022-08-21T03:10:40.737Z,7.05
2022-08-21T03:13:08.126Z,8.48
2022-08-21T03:15:35.320Z,8.20
2022-08-21T03:18:04.511Z,8.38
2022-08-21T03:20:33.728Z,8.07
2022-08-21T03:23:01.882Z,8.00
2022-08-21T03:25:40.651Z,7.85
2022-08-21T03:28:13.659Z,7.35
2022-08-21T03:30:44.993Z,7.32
2022-08-21T03:33:15.257Z,7.63
2022-08-21T03:35:48.539Z,7.35
2022-08-21T03:38:15.911Z,8.30
2022-08-21T03:40:44.382Z,7.70
2022-08-21T03:43:12.036Z,8.00
2022-08-21T03:45:39.991Z,9.35
2022-08-21T03:48:08.238Z,7.70
2022-08-21T03:50:40.672Z,8.90
2022-08-21T03:53:17.051Z,8.43
2022-08-21T03:55:46.738Z,7.85
2022-08-21T03:58:16.900Z,7.60
2022-08-21T04:00:46.321Z,8.82
2022-08-21T04:03:13.383Z,8.68
2022-08-21T04:05:40.302Z,8.00
2022-08-21T04:08:07.774Z,8.77
2022-08-21T04:10:37.040Z,8.48
2022-08-21T04:13:05.369Z,9.18
2022-08-21T04:15:32.689Z,9.07
2022-08-21T04:17:59.999Z,9.27
2022-08-21T04:20:27.482Z,8.60
2022-08-21T04:22:54.803Z,8.80
2022-08-21T04:25:23.095Z,9.40
2022-08-21T04:27:51.043Z,8.55
2022-08-21T04:30:18.624Z,8.98
2022-08-21T04:32:50.163Z,9.00
2022-08-21T04:35:18.892Z,9.13
2022-08-21T04:37:46.182Z,10.55
2022-08-21T04:40:15.026Z,10.35
2022-08-21T04:42:47.172Z,10.70
2022-08-21T04:45:21.529Z,10.60
2022-08-21T04:47:53.169Z,10.70
2022-08-21T04:50:21.628Z,13.20
2022-08-21T04:52:50.496Z,11.10
2022-08-21T04:55:20.476Z,10.43
2022-08-21T04:57:48.589Z,10.88
2022-08-21T05:00:21.126Z,10.00
2022-08-21T05:02:52.367Z,10.57
2022-08-21T05:05:21.689Z,11.35
2022-08-21T05:07:48.931Z,11.38
2022-08-21T05:10:16.153Z,11.07
2022-08-21T05:12:44.537Z,10.50
2022-08-21T05:15:13.732Z,9.98
2022-08-21T05:17:41.894Z,10.40
2022-08-21T05:20:09.697Z,11.75
2022-08-21T05:22:37.016Z,9.43
2022-08-21T05:25:10.197Z,11.50
2022-08-21T05:27:39.302Z,11.80
2022-08-21T05:30:08.672Z,11.63
2022-08-21T05:32:36.636Z,11.27
2022-08-21T05:35:08.297Z,11.68
2022-08-21T05:37:36.075Z,10.82
2022-08-21T05:40:20.291Z,11.88
2022-08-21T05:42:54.625Z,12.05
2022-08-21T05:45:42.002Z,13.43
2022-08-21T05:48:10.397Z,12.23
2022-08-21T05:50:39.076Z,13.60
2022-08-21T05:53:07.512Z,13.68
2022-08-21T05:55:36.395Z,11.88
2022-08-21T05:58:03.627Z,12.98
2022-08-21T06:00:30.846Z,12.98
2022-08-21T06:02:57.843Z,12.90
2022-08-21T06:05:36.764Z,13.07
2022-08-21T06:08:04.990Z,12.57
2022-08-21T06:10:32.418Z,12.77
2022-08-21T06:12:59.452Z,11.52
2022-08-21T06:15:26.481Z,11.85
2022-08-21T06:17:54.429Z,11.88
2022-08-21T06:20:22.625Z,11.15
2022-08-21T06:22:51.505Z,10.32
2022-08-21T06:25:19.746Z,11.68
2022-08-21T06:27:47.017Z,11.25
2022-08-21T06:30:14.348Z,10.68
2022-08-21T06:32:41.387Z,9.93
2022-08-21T06:35:08.799Z,9.93
2022-08-21T06:37:35.927Z,9.55
2022-08-21T06:40:05.368Z,10.73
2022-08-21T06:42:32.233Z,8.23
2022-08-21T06:44:59.158Z,8.52
2022-08-21T06:47:25.995Z,8.30
2022-08-21T06:49:52.980Z,8.60
2022-08-21T06:52:20.247Z,7.65
2022-08-21T06:54:47.093Z,7.75
2022-08-21T06:57:14.366Z,8.35
2022-08-21T06:59:41.157Z,7.72
2022-08-21T07:02:08.949Z,7.45
2022-08-21T07:04:35.734Z,7.25
2022-08-21T07:07:02.547Z,7.18
2022-08-21T07:09:29.402Z,7.65
2022-08-21T07:11:57.609Z,8.57
2022-08-21T07:14:24.666Z,7.13
2022-08-21T07:16:54.002Z,7.28
2022-08-21T07:19:21.696Z,7.15
2022-08-21T07:21:48.818Z,6.63
2022-08-21T07:24:15.700Z,5.85
2022-08-21T07:26:42.551Z,5.03
2022-08-21T07:29:09.867Z,4.63
2022-08-21T07:31:37.135Z,4.43
2022-08-21T07:34:04.001Z,4.90
2022-08-21T07:36:30.889Z,4.63
2022-08-21T07:39:00.276Z,4.28
2022-08-21T07:41:30.031Z,5.25
2022-08-21T07:43:58.269Z,4.03
2022-08-21T07:46:26.100Z,3.15
2022-08-21T07:48:53.833Z,6.28
2022-08-21T07:51:24.826Z,2.30
2022-08-21T07:53:56.218Z,2.00
2022-08-21T07:56:23.666Z,1.92
2022-08-21T07:58:53.639Z,2.30
2022-08-21T08:01:24.061Z,2.42
2022-08-21T08:03:51.688Z,2.53
2022-08-21T08:06:20.182Z,2.13
2022-08-21T08:08:47.302Z,1.77
2022-08-21T08:11:17.495Z,2.30
2022-08-21T08:13:47.062Z,2.13
2022-08-21T08:16:15.116Z,1.38
2022-08-21T08:18:43.104Z,1.50
2022-08-21T08:21:11.468Z,1.92
2022-08-21T08:23:38.695Z,1.38
2022-08-21T08:26:06.550Z,1.50
2022-08-21T08:28:33.804Z,1.45
2022-08-21T08:31:01.952Z,1.67
2022-08-21T08:33:28.905Z,1.83
2022-08-21T08:35:55.905Z,2.05
2022-08-21T08:38:24.788Z,1.70
2022-08-21T08:41:09.173Z,1.20
2022-08-21T08:43:36.621Z,1.40
2022-08-21T08:46:12.186Z,1.90
2022-08-21T08:48:56.766Z,1.20
2022-08-21T08:51:53.642Z,1.10
2022-08-21T08:54:45.782Z,1.90
2022-08-21T08:57:18.400Z,1.50
2022-08-21T08:59:48.801Z,1.23
2022-08-21T09:02:17.641Z,1.85
2022-08-21T09:04:48.252Z,1.10
2022-08-21T09:07:26.973Z,1.05
2022-08-21T09:10:02.583Z,1.70
2022-08-21T09:12:37.520Z,1.42
2022-08-21T09:15:21.304Z,1.52
2022-08-21T09:18:10.028Z,1.90
2022-08-21T09:20:56.464Z,1.15
2022-08-21T09:23:42.463Z,1.50
2022-08-21T09:26:16.153Z,1.80
2022-08-21T09:28:44.588Z,1.60
2022-08-21T09:31:34.095Z,1.65
2022-08-21T09:34:02.052Z,1.58
2022-08-21T09:36:50.601Z,1.10
2022-08-21T09:39:33.217Z,1.55
2022-08-21T09:42:10.323Z,1.33
2022-08-21T09:44:40.860Z,1.55
2022-08-21T09:47:09.542Z,1.08
2022-08-21T09:49:38.687Z,2.28
2022-08-21T09:52:17.172Z,1.25
2022-08-21T09:54:47.130Z,1.20
2022-08-21T09:57:39.402Z,1.33
2022-08-21T10:00:30.920Z,1.25
2022-08-21T10:03:33.144Z,0.90
2022-08-21T10:06:09.690Z,1.20
2022-08-21T10:08:39.676Z,1.15
2022-08-21T10:11:13.958Z,1.25
2022-08-21T10:13:46.618Z,1.27
2022-08-21T10:16:16.473Z,1.15
2022-08-21T10:19:03.554Z,1.20
2022-08-21T10:21:59.330Z,1.40
2022-08-21T10:24:48.995Z,1.70
2022-08-21T10:27:42.775Z,1.20
2022-08-21T10:30:35.947Z,1.38
2022-08-21T10:33:28.033Z,1.40
2022-08-21T10:36:15.802Z,1.35
2022-08-21T10:39:35.463Z,1.75
2022-08-21T10:42:06.846Z,1.55
2022-08-21T10:44:59.469Z,1.42
2022-08-21T10:47:36.044Z,1.55
2022-08-21T10:50:24.280Z,1.20
2022-08-21T10:52:52.396Z,1.35
2022-08-21T10:55:33.631Z,2.05
2022-08-21T10:58:18.562Z,1.10
2022-08-21T11:00:52.747Z,0.80
2022-08-21T11:03:34.072Z,0.88
2022-08-21T11:06:14.020Z,0.80
2022-08-21T11:08:44.941Z,1.30
2022-08-21T11:11:36.039Z,1.35
2022-08-21T11:14:25.493Z,0.98
2022-08-21T11:17:22.265Z,1.05
2022-08-21T11:19:49.157Z,1.88
2022-08-21T11:22:33.068Z,1.10
2022-08-21T11:25:21.312Z,1.20
2022-08-21T11:27:55.268Z,1.42
2022-08-21T11:30:28.371Z,0.70
2022-08-21T11:33:14.357Z,0.90
2022-08-21T11:36:05.230Z,0.98
2022-08-21T11:38:45.937Z,1.00
2022-08-21T11:41:29.759Z,0.90
2022-08-21T11:44:23.647Z,1.10
2022-08-21T11:47:24.138Z,1.23
2022-08-21T11:50:32.493Z,1.13
2022-08-21T11:53:11.774Z,1.20
2022-08-21T11:56:06.667Z,1.13
2022-08-21T11:58:59.851Z,1.30
2022-08-21T12:01:34.102Z,1.30
2022-08-21T12:04:07.514Z,1.00
2022-08-21T12:06:39.684Z,0.93
2022-08-21T12:09:24.651Z,1.20
2022-08-21T12:12:06.398Z,0.93
2022-08-21T12:14:51.616Z,0.90
2022-08-21T12:17:25.221Z,1.10
2022-08-21T12:20:18.463Z,1.20
2022-08-21T12:22:53.946Z,0.70
2022-08-21T12:25:22.693Z,0.77
2022-08-21T12:27:53.150Z,1.58
2022-08-21T12:30:28.369Z,1.00
2022-08-21T12:33:00.457Z,1.00
2022-08-21T12:35:34.213Z,0.90
2022-08-21T12:38:19.130Z,0.70
2022-08-21T12:40:59.558Z,0.85
2022-08-21T12:43:34.948Z,0.75
2022-08-21T12:46:05.473Z,1.00
2022-08-21T12:48:45.502Z,1.20
2022-08-21T12:51:29.954Z,1.17
2022-08-21T12:53:59.658Z,0.95
2022-08-21T12:56:29.408Z,1.00
2022-08-21T12:59:06.412Z,0.90
2022-08-21T13:01:41.849Z,0.90
2022-08-21T13:04:18.198Z,2.05
2022-08-21T13:06:46.932Z,1.17
2022-08-21T13:09:17.283Z,1.33
2022-08-21T13:11:46.708Z,1.13
2022-08-21T13:14:31.427Z,0.95
2022-08-21T13:17:00.152Z,1.05
2022-08-21T13:19:27.783Z,1.15
2022-08-21T13:21:54.852Z,1.23
2022-08-21T13:24:41.707Z,0.80
2022-08-21T13:27:21.891Z,1.10
2022-08-21T13:29:54.093Z,0.88
2022-08-21T13:32:25.115Z,0.90
2022-08-21T13:34:54.299Z,1.00
2022-08-21T13:37:23.510Z,1.10
2022-08-21T13:39:54.224Z,1.00
2022-08-21T13:42:25.030Z,0.98
2022-08-21T13:44:53.944Z,0.88
2022-08-21T13:47:24.362Z,0.90
2022-08-21T13:49:58.965Z,0.90
2022-08-21T13:52:28.182Z,1.05
2022-08-21T13:54:58.874Z,0.98
2022-08-21T13:57:30.796Z,0.82
2022-08-21T14:00:13.651Z,1.33
2022-08-21T14:02:43.107Z,0.90
2022-08-21T14:05:17.005Z,0.85
2022-08-21T14:07:44.729Z,0.82
2022-08-21T14:10:17.249Z,1.10
2022-08-21T14:12:55.549Z,1.00
2022-08-21T14:15:27.405Z,1.15
2022-08-21T14:17:54.738Z,0.98
2022-08-21T14:20:30.597Z,1.05
2022-08-21T14:22:58.203Z,1.00
2022-08-21T14:25:25.530Z,1.10
2022-08-21T14:27:52.663Z,1.20
2022-08-21T14:30:21.683Z,1.00
2022-08-21T14:32:50.126Z,1.13
2022-08-21T14:35:18.766Z,1.13
2022-08-21T14:37:51.546Z,0.98
2022-08-21T14:40:19.955Z,1.30
2022-08-21T14:42:47.831Z,1.20
2022-08-21T14:45:16.536Z,1.30
2022-08-21T14:47:45.113Z,1.83
2022-08-21T14:50:13.655Z,1.35
2022-08-21T14:52:41.827Z,1.00
2022-08-21T14:55:14.940Z,1.20
2022-08-21T14:57:44.476Z,1.13
2022-08-21T15:00:12.627Z,1.00
2022-08-21T15:02:39.898Z,1.30
2022-08-21T15:05:07.858Z,1.23
2022-08-21T15:07:35.050Z,1.05
2022-08-21T15:10:02.378Z,0.90
2022-08-21T15:12:29.597Z,1.13
2022-08-21T15:14:56.821Z,1.67
2022-08-21T15:17:24.165Z,1.30
2022-08-21T15:19:51.626Z,1.00
2022-08-21T15:22:27.667Z,1.85
2022-08-21T15:24:55.316Z,0.80
2022-08-21T15:27:22.514Z,1.42
2022-08-21T15:29:49.861Z,1.40
2022-08-21T15:32:17.204Z,1.30
2022-08-21T15:34:44.371Z,1.15
2022-08-21T15:37:11.545Z,1.50
2022-08-21T15:39:41.361Z,1.40
2022-08-21T15:42:11.085Z,1.25
2022-08-21T15:44:39.069Z,1.27
2022-08-21T15:47:07.423Z,1.23
2022-08-21T15:49:34.637Z,1.77
2022-08-21T15:52:01.852Z,1.30
2022-08-21T15:54:29.013Z,1.15
2022-08-21T15:56:56.199Z,1.42
2022-08-21T15:59:23.788Z,1.45
2022-08-21T16:01:52.087Z,0.90
2022-08-21T16:04:26.842Z,1.38
2022-08-21T16:06:59.873Z,1.02
2022-08-21T16:09:29.575Z,1.17
2022-08-21T16:11:56.756Z,1.38
2022-08-21T16:14:24.050Z,1.55
2022-08-21T16:16:51.551Z,1.50
2022-08-21T16:19:19.509Z,1.25
2022-08-21T16:21:46.738Z,1.58
2022-08-21T16:24:14.061Z,2.58
2022-08-21T16:26:41.425Z,0.93
2022-08-21T16:29:10.722Z,1.20
2022-08-21T16:31:38.022Z,1.35
2022-08-21T16:34:05.317Z,1.23
2022-08-21T16:36:32.522Z,1.30
2022-08-21T16:39:00.852Z,1.75
2022-08-21T16:41:29.652Z,1.20
2022-08-21T16:43:56.833Z,1.77
2022-08-21T16:46:24.795Z,1.15
2022-08-21T16:48:52.023Z,3.88
2022-08-21T16:51:19.256Z,1.75
2022-08-21T16:53:46.456Z,1.38
2022-08-21T16:56:15.735Z,1.50
2022-08-21T16:58:45.000Z,1.15
2022-08-21T17:01:15.030Z,1.70
2022-08-21T17:03:44.132Z,1.40
2022-08-21T17:06:11.477Z,1.45
2022-08-21T17:08:39.162Z,1.70
2022-08-21T17:11:08.171Z,1.20
2022-08-21T17:13:35.733Z,1.60
2022-08-21T17:16:03.580Z,1.95
2022-08-21T17:18:30.972Z,1.75
2022-08-21T17:20:58.174Z,1.35
2022-08-21T17:23:25.326Z,1.38
2022-08-21T17:25:53.862Z,1.88
2022-08-21T17:28:26.349Z,3.40
2022-08-21T17:30:54.968Z,2.28
2022-08-21T17:33:25.382Z,1.95
2022-08-21T17:35:53.265Z,2.10
2022-08-21T17:38:20.842Z,2.35
2022-08-21T17:40:48.686Z,2.35
2022-08-21T17:43:15.938Z,3.00
2022-08-21T17:45:44.097Z,2.05
2022-08-21T17:48:11.750Z,2.10
2022-08-21T17:50:40.424Z,2.33
2022-08-21T17:53:07.893Z,1.85
2022-08-21T17:55:35.364Z,2.25
2022-08-21T17:58:03.667Z,2.33
2022-08-21T18:00:31.469Z,2.20
2022-08-21T18:03:08.868Z,2.03
2022-08-21T18:05:36.333Z,1.92
2022-08-21T18:08:03.626Z,1.90
2022-08-21T18:10:30.856Z,3.03
2022-08-21T18:12:58.502Z,3.50
2022-08-21T18:15:25.794Z,2.60
2022-08-21T18:17:53.624Z,2.17
2022-08-21T18:20:22.272Z,2.35
2022-08-21T18:22:49.793Z,2.30
2022-08-21T18:25:17.462Z,2.25
2022-08-21T18:27:45.913Z,2.13
2022-08-21T18:30:15.389Z,2.25
2022-08-21T18:32:42.759Z,2.22
2022-08-21T18:35:11.395Z,2.67
2022-08-21T18:37:38.766Z,2.42
2022-08-21T18:40:08.536Z,3.60
2022-08-21T18:42:40.928Z,2.45
2022-08-21T18:45:11.942Z,4.43
2022-08-21T18:47:46.789Z,2.45
2022-08-21T18:50:14.955Z,2.63
2022-08-21T18:52:52.538Z,3.05
2022-08-21T18:55:21.395Z,3.05
2022-08-21T18:57:48.672Z,2.33
2022-08-21T19:00:20.794Z,2.90
2022-08-21T19:02:48.160Z,2.38
2022-08-21T19:08:04.057Z,2.13
2022-08-21T19:10:31.411Z,3.65
2022-08-21T19:13:00.154Z,2.05
2022-08-21T19:15:28.450Z,4.38
2022-08-21T19:17:56.573Z,2.03
2022-08-21T19:20:31.554Z,2.00
2022-08-21T19:22:59.059Z,2.65
2022-08-21T19:25:33.481Z,2.08
2022-08-21T19:28:02.091Z,2.25
2022-08-21T19:30:30.831Z,4.53
2022-08-21T19:32:58.282Z,2.08
2022-08-21T19:35:27.454Z,1.85
2022-08-21T19:37:54.729Z,2.55
2022-08-21T19:40:22.448Z,2.05
2022-08-21T19:42:50.026Z,2.15
2022-08-21T19:45:17.313Z,2.03
2022-08-21T19:47:51.013Z,2.60
2022-08-21T19:50:21.330Z,2.15
2022-08-21T19:52:51.325Z,2.65
2022-08-21T19:55:19.193Z,3.05
2022-08-21T19:57:46.651Z,2.28
2022-08-21T20:03:02.619Z,2.85
2022-08-21T20:05:36.092Z,2.50
2022-08-21T20:08:11.805Z,3.17
2022-08-21T20:10:47.859Z,3.42
2022-08-21T20:13:17.705Z,2.60
2022-08-21T20:15:46.032Z,12.50
2022-08-21T20:18:13.936Z,4.65
2022-08-21T20:20:41.333Z,3.47
2022-08-21T20:23:10.714Z,5.38
2022-08-21T20:25:38.930Z,3.75
2022-08-21T20:28:06.816Z,3.22
2022-08-21T20:30:35.511Z,3.95
2022-08-21T20:33:02.903Z,3.40
2022-08-21T20:35:30.659Z,8.25
2022-08-21T20:37:59.245Z,4.38
2022-08-21T20:40:32.081Z,3.20
2022-08-21T20:43:00.750Z,2.97
2022-08-21T20:45:29.882Z,3.80
2022-08-21T20:48:15.655Z,2.38
2022-08-21T20:50:45.517Z,2.42
2022-08-21T20:53:21.860Z,3.10
2022-08-21T20:55:52.204Z,2.90
2022-08-21T20:58:25.481Z,3.03
2022-08-21T21:00:57.258Z,3.50
2022-08-21T21:03:34.723Z,2.70
2022-08-21T21:06:04.255Z,2.25
2022-08-21T21:08:33.370Z,7.63
2022-08-21T21:11:27.910Z,3.05
2022-08-21T21:14:02.602Z,3.17
2022-08-21T21:16:29.833Z,3.03
2022-08-21T21:22:05.238Z,4.30
2022-08-21T21:24:36.767Z,10.73
2022-08-21T21:27:18.485Z,2.95
2022-08-21T21:29:52.668Z,10.23
2022-08-21T21:32:23.922Z,4.45
2022-08-21T21:34:51.459Z,9.60
2022-08-21T21:37:29.857Z,3.40
2022-08-21T21:39:57.119Z,4.15
2022-08-21T21:42:42.618Z,19.58
2022-08-21T21:45:19.874Z,4.88
2022-08-21T21:47:53.643Z,3.08
2022-08-21T21:50:32.902Z,2.88
2022-08-21T21:53:12.478Z,2.72
2022-08-21T21:55:58.633Z,3.38
2022-08-21T21:58:44.987Z,3.38
2022-08-21T22:01:31.944Z,2.33
2022-08-21T22:04:07.581Z,2.90
2022-08-21T22:06:34.765Z,2.28
2022-08-21T22:09:12.620Z,3.55
2022-08-21T22:11:43.406Z,3.15
2022-08-21T22:14:15.891Z,3.67
2022-08-21T22:16:45.433Z,3.30
2022-08-21T22:19:21.198Z,3.45
2022-08-21T22:21:54.489Z,3.42
2022-08-21T22:24:27.733Z,2.75
2022-08-21T22:26:59.707Z,4.60
2022-08-21T22:29:43.239Z,2.22
2022-08-21T22:32:11.861Z,2.60
2022-08-21T22:34:39.160Z,2.60
2022-08-21T22:37:10.604Z,2.53
2022-08-21T22:42:27.474Z,2.53
2022-08-21T22:44:57.005Z,3.08
2022-08-21T22:47:33.679Z,2.85
2022-08-21T22:50:04.807Z,2.05
2022-08-21T22:52:51.617Z,1.80
2022-08-21T22:55:26.401Z,3.15
2022-08-21T22:58:07.423Z,3.28
2022-08-21T23:00:38.056Z,3.58
2022-08-21T23:03:05.343Z,2.92
2022-08-21T23:05:34.479Z,3.50
2022-08-21T23:08:23.958Z,3.80
2022-08-21T23:10:51.817Z,3.85
2022-08-21T23:13:20.318Z,4.18
2022-08-21T23:15:59.997Z,2.72
2022-08-21T23:18:30.278Z,2.78
2022-08-21T23:21:20.996Z,2.60
2022-08-21T23:23:54.759Z,3.03
2022-08-21T23:26:35.401Z,3.05
2022-08-21T23:29:24.775Z,2.97
2022-08-21T23:31:59.256Z,3.30
2022-08-21T23:34:49.342Z,3.35
2022-08-21T23:37:49.043Z,2.60
2022-08-21T23:40:35.968Z,2.95
2022-08-21T23:43:22.098Z,2.55
2022-08-21T23:46:04.640Z,2.38
2022-08-21T23:48:47.388Z,2.70
2022-08-21T23:51:23.528Z,2.75
2022-08-21T23:53:59.477Z,2.65
2022-08-21T23:56:50.086Z,2.40
2022-08-21T23:59:35.771Z,2.75
